createdAt,value
2023-02-07T00:03:41.013Z,9.75
2023-02-07T00:08:43.844Z,9.32
2023-02-07T00:13:47.774Z,9.05
2023-02-07T00:18:50.075Z,10.75
2023-02-07T00:23:53.162Z,10.77
2023-02-07T00:28:56.422Z,10.75
2023-02-07T00:34:01.008Z,12.60
2023-02-07T00:39:06.820Z,10.75
2023-02-07T00:44:09.182Z,12.05
2023-02-07T00:49:11.924Z,11.55
2023-02-07T00:54:13.826Z,11.63
2023-02-07T00:59:15.845Z,12.23
2023-02-07T01:04:17.884Z,11.25
2023-02-07T01:09:20.033Z,12.70
2023-02-07T01:14:22.023Z,10.95
2023-02-07T01:19:23.987Z,11.77
2023-02-07T01:24:25.771Z,14.15
2023-02-07T01:29:28.212Z,14.30
2023-02-07T01:34:30.054Z,12.07
2023-02-07T01:39:31.859Z,13.77
2023-02-07T01:44:36.777Z,14.43
2023-02-07T01:49:40.160Z,18.20
2023-02-07T01:54:44.500Z,15.20
2023-02-07T01:59:46.493Z,14.57
2023-02-07T02:04:49.900Z,14.35
2023-02-07T02:09:52.688Z,12.45
2023-02-07T02:15:10.118Z,13.02
2023-02-07T02:20:27.225Z,16.02
2023-02-07T02:26:08.668Z,16.55
2023-02-07T02:31:27.254Z,15.60
2023-02-07T02:36:34.174Z,17.73
2023-02-07T02:41:49.327Z,16.95
2023-02-07T02:46:54.119Z,16.70
2023-02-07T02:51:56.617Z,15.85
2023-02-07T02:57:36.184Z,16.55
2023-02-07T03:03:11.584Z,16.80
2023-02-07T03:08:43.508Z,16.55
2023-02-07T03:14:00.025Z,15.38
2023-02-07T03:19:11.515Z,18.35
2023-02-07T03:24:19.863Z,19.45
2023-02-07T03:29:24.742Z,16.98
2023-02-07T03:39:36.020Z,16.98
2023-02-07T03:44:40.678Z,24.50
2023-02-07T03:49:42.547Z,21.80
2023-02-07T03:54:45.158Z,24.02
2023-02-07T03:59:46.993Z,20.00
2023-02-07T04:04:48.844Z,20.25
2023-02-07T04:09:51.456Z,21.23
2023-02-07T04:14:53.292Z,24.15
2023-02-07T04:19:55.116Z,18.95
2023-02-07T04:24:57.314Z,21.80
2023-02-07T04:29:59.131Z,19.83
2023-02-07T04:35:00.865Z,19.58
2023-02-07T04:40:02.781Z,24.02
2023-02-07T04:45:05.255Z,19.13
2023-02-07T04:50:09.352Z,16.33
2023-02-07T04:55:11.308Z,21.73
2023-02-07T05:00:14.140Z,19.67
2023-02-07T05:05:16.001Z,30.08
2023-02-07T05:10:17.819Z,29.52
2023-02-07T05:15:20.045Z,26.63
2023-02-07T05:20:22.037Z,26.40
2023-02-07T05:25:23.845Z,23.42
2023-02-07T05:30:25.959Z,27.35
2023-02-07T05:35:27.655Z,24.33
2023-02-07T05:40:29.600Z,24.13
2023-02-07T05:45:31.383Z,23.25
2023-02-07T05:50:33.305Z,27.48
2023-02-07T05:55:41.198Z,25.15
2023-02-07T06:00:43.121Z,26.25
2023-02-07T06:05:44.843Z,27.25
2023-02-07T06:10:49.287Z,27.13
2023-02-07T06:20:52.843Z,27.27
2023-02-07T06:25:54.890Z,32.97
2023-02-07T06:30:57.046Z,29.38
2023-02-07T06:35:58.919Z,29.13
2023-02-07T06:41:00.652Z,25.08
2023-02-07T06:46:02.592Z,24.55
2023-02-07T06:51:05.249Z,26.13
2023-02-07T06:56:08.335Z,32.03
2023-02-07T07:01:10.328Z,26.17
2023-02-07T07:06:12.326Z,27.20
2023-02-07T07:11:14.379Z,27.95
2023-02-07T07:16:16.221Z,30.50
2023-02-07T07:21:18.262Z,27.98
2023-02-07T07:26:20.438Z,30.48
2023-02-07T07:31:22.409Z,32.70
2023-02-07T07:36:24.316Z,32.95
2023-02-07T07:41:26.232Z,26.63
2023-02-07T07:46:28.058Z,26.52
2023-02-07T07:51:29.841Z,24.05
2023-02-07T07:56:31.643Z,26.02
2023-02-07T08:01:33.528Z,17.90
2023-02-07T08:06:35.364Z,15.32
2023-02-07T08:11:37.131Z,16.00
2023-02-07T08:16:38.850Z,16.67
2023-02-07T08:21:40.573Z,24.15
2023-02-07T08:26:42.667Z,18.02
2023-02-07T08:31:44.451Z,16.63
2023-02-07T08:36:46.188Z,16.63
2023-02-07T08:41:47.881Z,15.82
2023-02-07T08:46:49.579Z,17.63
2023-02-07T08:51:52.698Z,15.18
2023-02-07T08:56:54.383Z,14.98
2023-02-07T09:01:56.175Z,16.02
2023-02-07T09:06:57.919Z,17.42
2023-02-07T09:12:00.057Z,15.82
2023-02-07T09:17:01.911Z,15.50
2023-02-07T09:22:04.942Z,14.23
2023-02-07T09:27:06.951Z,16.17
2023-02-07T09:32:08.803Z,14.18
2023-02-07T09:37:10.745Z,16.55
2023-02-07T09:42:30.560Z,15.07
2023-02-07T09:47:33.771Z,12.68
2023-02-07T09:53:01.248Z,13.73
2023-02-07T09:58:09.433Z,12.13
2023-02-07T10:03:21.025Z,13.43
2023-02-07T10:08:28.262Z,14.23
2023-02-07T10:14:04.113Z,12.55
2023-02-07T10:19:27.981Z,12.38
2023-02-07T10:24:41.916Z,13.17
2023-02-07T10:29:56.946Z,12.02
2023-02-07T10:35:19.203Z,13.50
2023-02-07T10:40:41.401Z,10.95
2023-02-07T10:45:43.334Z,11.40
2023-02-07T10:50:45.699Z,11.30
2023-02-07T10:55:48.263Z,14.68
2023-02-07T11:00:52.745Z,10.68
2023-02-07T11:06:06.325Z,11.18
2023-02-07T11:11:25.283Z,13.23
2023-02-07T11:16:27.090Z,13.23
2023-02-07T11:21:38.526Z,12.02
2023-02-07T11:26:51.872Z,12.35
2023-02-07T11:31:56.569Z,9.95
2023-02-07T11:37:24.779Z,14.25
2023-02-07T11:42:31.806Z,11.20
2023-02-07T11:47:35.754Z,13.73
2023-02-07T11:52:39.725Z,16.73
2023-02-07T11:57:41.935Z,14.43
2023-02-07T12:03:03.809Z,16.13
2023-02-07T12:08:15.131Z,16.20
2023-02-07T12:13:29.562Z,13.48
2023-02-07T12:18:35.538Z,13.23
2023-02-07T12:23:49.419Z,14.35
2023-02-07T12:29:15.027Z,12.75
2023-02-07T12:34:45.384Z,12.68
2023-02-07T12:40:13.203Z,13.43
2023-02-07T12:45:19.046Z,13.30
2023-02-07T12:51:05.774Z,15.50
2023-02-07T12:56:10.818Z,12.32
2023-02-07T13:01:29.034Z,13.15
2023-02-07T13:06:58.479Z,12.82
2023-02-07T13:12:21.546Z,12.27
2023-02-07T13:17:48.031Z,15.65
2023-02-07T13:22:53.711Z,10.07
2023-02-07T13:27:59.118Z,13.35
2023-02-07T13:33:11.140Z,10.13
2023-02-07T13:38:22.083Z,10.43
2023-02-07T13:43:40.463Z,11.73
2023-02-07T13:48:49.692Z,12.88
2023-02-07T13:54:25.048Z,13.93
2023-02-07T13:59:38.397Z,15.82
2023-02-07T14:04:50.675Z,11.90
2023-02-07T14:09:56.804Z,9.20
2023-02-07T14:15:42.646Z,9.63
2023-02-07T14:20:44.414Z,11.40
2023-02-07T14:25:47.311Z,10.23
2023-02-07T14:30:49.206Z,9.10
2023-02-07T14:36:13.428Z,8.48
2023-02-07T14:41:26.700Z,10.52
2023-02-07T14:46:28.534Z,10.18
2023-02-07T14:51:30.395Z,12.77
2023-02-07T14:56:45.288Z,11.27
2023-02-07T15:01:47.242Z,7.65
2023-02-07T15:06:49.417Z,8.13
2023-02-07T15:11:59.829Z,6.97
2023-02-07T15:17:07.038Z,14.18
2023-02-07T15:22:20.582Z,14.35
2023-02-07T15:27:29.158Z,24.75
2023-02-07T15:32:34.683Z,11.35
2023-02-07T15:37:37.485Z,15.13
2023-02-07T15:42:54.364Z,12.45
2023-02-07T15:47:58.919Z,10.75
2023-02-07T15:58:05.425Z,14.18
2023-02-07T16:03:23.661Z,13.13
2023-02-07T16:08:42.277Z,8.48
2023-02-07T16:13:52.860Z,9.95
2023-02-07T16:19:15.699Z,8.23
2023-02-07T16:24:24.499Z,9.38
2023-02-07T16:29:26.969Z,7.25
2023-02-07T16:34:28.689Z,10.55
2023-02-07T16:39:30.401Z,10.30
2023-02-07T16:44:35.159Z,8.50
2023-02-07T16:49:38.113Z,13.07
2023-02-07T16:54:39.879Z,8.57
2023-02-07T16:59:41.773Z,7.78
2023-02-07T17:04:43.615Z,7.85
2023-02-07T17:09:49.276Z,8.65
2023-02-07T17:14:51.050Z,9.18
2023-02-07T17:19:52.799Z,9.25
2023-02-07T17:24:54.571Z,7.10
2023-02-07T17:29:56.407Z,7.20
2023-02-07T17:34:58.164Z,8.90
2023-02-07T17:39:59.950Z,6.85
2023-02-07T17:45:01.982Z,9.70
2023-02-07T17:50:04.691Z,9.18
2023-02-07T17:55:07.025Z,9.77
2023-02-07T18:00:18.153Z,6.63
2023-02-07T18:05:20.758Z,10.98
2023-02-07T18:10:28.522Z,9.77
2023-02-07T18:15:31.077Z,9.23
2023-02-07T18:20:34.579Z,8.25
2023-02-07T18:25:36.331Z,8.43
2023-02-07T18:30:39.666Z,8.48
2023-02-07T18:35:41.680Z,20.95
2023-02-07T18:40:43.755Z,15.48
2023-02-07T18:45:45.623Z,23.63
2023-02-07T18:50:48.122Z,20.48
2023-02-07T18:55:50.292Z,15.60
2023-02-07T19:00:52.099Z,13.50
2023-02-07T19:05:57.763Z,11.32
2023-02-07T19:11:01.931Z,19.23
2023-02-07T19:16:10.761Z,19.90
2023-02-07T19:21:16.244Z,17.95
2023-02-07T19:26:18.203Z,12.68
2023-02-07T19:31:21.293Z,12.35
2023-02-07T19:36:24.429Z,11.20
2023-02-07T19:41:28.397Z,11.32
2023-02-07T19:46:30.474Z,10.93
2023-02-07T19:51:32.801Z,10.35
2023-02-07T19:56:35.859Z,13.18
2023-02-07T20:01:38.181Z,10.93
2023-02-07T20:06:40.017Z,13.38
2023-02-07T20:11:41.889Z,13.48
2023-02-07T20:16:43.697Z,10.73
2023-02-07T20:21:45.604Z,9.68
2023-02-07T20:26:47.677Z,15.40
2023-02-07T20:31:49.942Z,13.88
2023-02-07T20:36:51.776Z,12.13
2023-02-07T20:41:53.516Z,17.23
2023-02-07T20:46:57.587Z,21.23
2023-02-07T20:51:59.852Z,23.00
2023-02-07T20:57:01.665Z,17.85
2023-02-07T21:02:03.770Z,19.05
2023-02-07T21:07:06.023Z,18.42
2023-02-07T21:12:08.951Z,17.60
2023-02-07T21:17:12.373Z,16.02
2023-02-07T21:22:14.333Z,14.88
2023-02-07T21:27:16.448Z,16.13
2023-02-07T21:32:18.655Z,15.13
2023-02-07T21:37:21.359Z,13.98
2023-02-07T21:42:23.330Z,13.45
2023-02-07T21:47:27.205Z,14.30
2023-02-07T21:52:29.346Z,21.63
2023-02-07T21:57:31.161Z,13.90
2023-02-07T22:02:32.961Z,17.08
2023-02-07T22:07:34.811Z,16.75
2023-02-07T22:12:36.602Z,14.85
2023-02-07T22:17:38.388Z,15.25
2023-02-07T22:22:40.173Z,17.10
2023-02-07T22:27:41.897Z,19.23
2023-02-07T22:32:43.852Z,17.63
2023-02-07T22:37:45.642Z,14.50
2023-02-07T22:42:47.372Z,17.83
2023-02-07T22:47:49.197Z,15.70
2023-02-07T22:52:51.186Z,17.73
2023-02-07T22:57:53.065Z,15.90
2023-02-07T23:02:54.816Z,17.10
2023-02-07T23:07:56.648Z,16.17
2023-02-07T23:12:58.429Z,14.55
2023-02-07T23:18:00.191Z,15.35
2023-02-07T23:23:02.091Z,16.10
2023-02-07T23:28:04.947Z,17.35
2023-02-07T23:33:08.543Z,17.73
2023-02-07T23:38:10.552Z,17.90
2023-02-07T23:43:12.526Z,22.27
2023-02-07T23:48:14.607Z,18.88
2023-02-07T23:53:16.389Z,18.60
2023-02-07T23:58:18.423Z,18.38
